Time;durP1;ratioP1;P1;durP2;ratioP2;P2;SDS_P1;SDS_P2;PMS_P1;PMS_P2;Temp;Humidity;BMP_temperature;BMP_pressure;BME280_temperature;BME280_humidity;BME280_pressure;Samples;Min_cycle;Max_cycle;Signal;HPM_P1;HPM_P2
2021/10/06 00:02:06;;;;;;;0.40;0.20;;;13.30;79.40;;;;;;5053634;28;20033;-65
2021/10/06 00:04:31;;;;;;;0.80;0.30;;;13.30;79.50;;;;;;5049140;28;20037;-65
2021/10/06 00:06:57;;;;;;;1.20;0.20;;;13.20;79.40;;;;;;5052410;28;20553;-66
2021/10/06 00:09:23;;;;;;;1.55;0.30;;;13.20;79.40;;;;;;5053674;28;20040;-65
2021/10/06 00:11:48;;;;;;;0.57;0.20;;;13.20;79.40;;;;;;5050894;28;20025;-66
2021/10/06 00:14:14;;;;;;;0.90;0.32;;;13.20;79.40;;;;;;5053424;28;20405;-65
2021/10/06 00:16:40;;;;;;;0.98;0.25;;;13.20;79.40;;;;;;5050986;28;20066;-66
2021/10/06 00:19:07;;;;;;;0.20;0.20;;;13.20;79.50;;;;;;5055102;28;20491;-66
2021/10/06 00:21:34;;;;;;;0.70;0.20;;;13.20;79.60;;;;;;5053699;28;20048;-66
2021/10/06 00:23:59;;;;;;;3.40;0.30;;;13.20;79.60;;;;;;5047688;28;20029;-66
2021/10/06 00:26:25;;;;;;;1.23;0.30;;;13.20;79.60;;;;;;5054247;28;20082;-66
2021/10/06 00:28:50;;;;;;;2.38;0.35;;;13.20;79.60;;;;;;5050587;28;20489;-66
2021/10/06 00:31:16;;;;;;;1.02;0.43;;;13.20;79.70;;;;;;5049180;28;20111;-66
2021/10/06 00:33:42;;;;;;;2.95;0.57;;;13.20;79.80;;;;;;5055997;28;20053;-66
2021/10/06 00:36:09;;;;;;;0.80;0.50;;;13.20;80.00;;;;;;5051559;28;20037;-66
2021/10/06 00:38:34;;;;;;;1.17;0.50;;;13.20;80.00;;;;;;5052532;28;20776;-65
2021/10/06 00:41:00;;;;;;;0.98;0.30;;;13.10;79.90;;;;;;5053536;28;20100;-66
2021/10/06 00:43:26;;;;;;;1.10;0.40;;;13.20;80.00;;;;;;5053009;28;20033;-66
2021/10/06 00:45:52;;;;;;;0.50;0.25;;;13.10;80.10;;;;;;5052764;28;20454;-66
2021/10/06 00:48:17;;;;;;;2.17;0.50;;;13.10;80.20;;;;;;5052927;28;20036;-66
2021/10/06 00:50:44;;;;;;;1.85;0.70;;;13.10;80.30;;;;;;5052194;28;20051;-66
2021/10/06 00:53:10;;;;;;;4.85;0.52;;;13.10;80.50;;;;;;5052372;28;20040;-66
2021/10/06 00:55:37;;;;;;;0.98;0.40;;;13.10;80.50;;;;;;5052869;28;20128;-66
2021/10/06 00:58:03;;;;;;;1.02;0.45;;;13.10;80.60;;;;;;5055014;28;20075;-65
2021/10/06 01:00:28;;;;;;;1.23;0.50;;;13.00;81.40;;;;;;5050461;28;20686;-66
2021/10/06 01:02:54;;;;;;;2.50;0.45;;;13.00;80.80;;;;;;5048250;28;20102;-66
2021/10/06 01:05:20;;;;;;;1.17;0.50;;;13.00;80.80;;;;;;5051984;28;20486;-66
2021/10/06 01:07:45;;;;;;;1.65;0.30;;;13.00;80.90;;;;;;5048801;28;20446;-66
2021/10/06 01:10:11;;;;;;;2.50;0.30;;;13.00;80.90;;;;;;5048740;28;20048;-66
2021/10/06 01:12:38;;;;;;;1.02;0.20;;;13.00;81.00;;;;;;5045462;28;20033;-66
2021/10/06 01:15:08;;;;;;;1.08;0.40;;;13.00;81.00;;;;;;5048871;28;20072;-66
2021/10/06 01:17:34;;;;;;;1.25;0.35;;;13.00;81.10;;;;;;5048389;28;20048;-66
2021/10/06 01:19:59;;;;;;;1.35;0.40;;;12.90;81.20;;;;;;5052938;28;20399;-65
2021/10/06 01:22:25;;;;;;;1.02;0.40;;;12.90;81.20;;;;;;5050554;28;20044;-66
2021/10/06 01:24:51;;;;;;;1.45;0.40;;;13.00;81.30;;;;;;5052545;28;20025;-66
2021/10/06 01:27:16;;;;;;;2.10;0.40;;;12.90;81.40;;;;;;5049768;28;20029;-64
2021/10/06 01:29:42;;;;;;;1.25;0.40;;;12.90;81.30;;;;;;5053038;28;20125;-66
2021/10/06 01:32:16;;;;;;;1.10;0.38;;;12.90;81.40;;;;;;5052340;28;20029;-66
2021/10/06 01:34:54;;;;;;;0.75;0.40;;;12.90;81.50;;;;;;5053512;28;20028;-65
2021/10/06 01:37:19;;;;;;;2.35;0.47;;;12.90;81.30;;;;;;5051197;28;20415;-66
2021/10/06 01:39:45;;;;;;;1.98;0.68;;;12.90;81.20;;;;;;5051046;28;20036;-66
2021/10/06 01:42:11;;;;;;;1.10;0.45;;;12.90;81.20;;;;;;5052391;28;20385;-66
2021/10/06 01:44:36;;;;;;;3.08;0.73;;;12.90;81.10;;;;;;5052380;28;20411;-66
2021/10/06 01:47:03;;;;;;;1.02;0.38;;;12.90;81.00;;;;;;5049687;28;20032;-66
2021/10/06 01:49:28;;;;;;;2.38;0.45;;;12.90;81.00;;;;;;5052905;28;20052;-66
2021/10/06 01:51:54;;;;;;;1.17;0.50;;;12.90;81.00;;;;;;5051256;28;20026;-66
2021/10/06 01:54:19;;;;;;;2.38;0.50;;;12.80;80.90;;;;;;5053139;28;20093;-66
2021/10/06 01:56:45;;;;;;;1.52;0.32;;;12.80;81.90;;;;;;5052193;28;20552;-66
2021/10/06 01:59:11;;;;;;;2.20;0.75;;;12.80;81.00;;;;;;5052465;28;20033;-66
2021/10/06 02:01:36;;;;;;;2.88;0.60;;;12.80;81.00;;;;;;5051136;28;20126;-66
2021/10/06 02:04:02;;;;;;;3.05;0.63;;;12.80;81.00;;;;;;5052295;28;20052;-66
2021/10/06 02:06:28;;;;;;;2.00;0.43;;;12.80;81.10;;;;;;5047768;28;20033;-66
2021/10/06 02:08:53;;;;;;;2.25;0.47;;;12.80;81.20;;;;;;5043824;28;20036;-65
2021/10/06 02:11:19;;;;;;;1.85;0.40;;;12.70;81.90;;;;;;5042208;28;20040;-66
2021/10/06 02:13:45;;;;;;;1.50;0.45;;;12.70;81.00;;;;;;5048146;28;20036;-66
2021/10/06 02:16:10;;;;;;;1.92;0.45;;;12.70;81.80;;;;;;5053222;28;20029;-66
2021/10/06 02:18:36;;;;;;;3.85;0.80;;;12.70;80.90;;;;;;5053909;28;20045;-66
2021/10/06 02:21:02;;;;;;;0.88;0.40;;;12.70;80.80;;;;;;5046585;28;20047;-66
2021/10/06 02:23:28;;;;;;;2.42;0.57;;;12.70;80.80;;;;;;5045596;28;20047;-65
2021/10/06 02:25:54;;;;;;;1.85;0.20;;;12.70;80.80;;;;;;5049478;28;20033;-66
2021/10/06 02:28:19;;;;;;;1.27;0.30;;;12.70;80.90;;;;;;5054810;28;20678;-66
2021/10/06 02:30:45;;;;;;;0.90;0.32;;;12.60;80.90;;;;;;5049711;28;20120;-66
2021/10/06 02:33:11;;;;;;;1.88;0.40;;;12.60;80.80;;;;;;5051320;28;20047;-66
2021/10/06 02:35:37;;;;;;;3.45;0.40;;;12.60;80.80;;;;;;5051289;28;20135;-66
2021/10/06 02:38:03;;;;;;;1.42;0.47;;;12.60;80.60;;;;;;5047544;28;20040;-65
2021/10/06 02:40:29;;;;;;;1.30;0.30;;;12.60;80.60;;;;;;5051409;28;20037;-66
2021/10/06 02:42:54;;;;;;;1.60;0.65;;;12.60;80.50;;;;;;5052883;28;20026;-66
2021/10/06 02:45:21;;;;;;;3.08;0.40;;;12.60;80.60;;;;;;5051523;28;20035;-65
2021/10/06 02:47:47;;;;;;;1.27;0.20;;;12.50;80.50;;;;;;5054255;28;20040;-66
2021/10/06 02:50:16;;;;;;;0.52;0.30;;;12.60;80.60;;;;;;5047395;28;20060;-65
2021/10/06 02:52:42;;;;;;;0.63;0.30;;;12.50;80.60;;;;;;5051008;28;20037;-66
2021/10/06 02:55:08;;;;;;;1.52;0.50;;;12.50;80.60;;;;;;5053115;28;20032;-66
2021/10/06 02:57:37;;;;;;;1.30;0.57;;;12.50;80.60;;;;;;5054934;28;20041;-66
2021/10/06 03:00:06;;;;;;;2.50;0.40;;;12.40;80.70;;;;;;5056654;28;20032;-66
2021/10/06 03:02:32;;;;;;;0.90;0.30;;;12.40;80.70;;;;;;5052622;28;20031;-66
2021/10/06 03:04:58;;;;;;;2.35;0.50;;;12.40;80.60;;;;;;5050354;28;20037;-66
2021/10/06 03:07:24;;;;;;;2.55;0.57;;;12.40;80.70;;;;;;5051705;28;20049;-66
2021/10/06 03:09:49;;;;;;;1.77;0.38;;;12.40;80.60;;;;;;5054126;28;20500;-66
2021/10/06 03:12:15;;;;;;;1.20;0.30;;;12.40;80.80;;;;;;5053165;28;20377;-66
2021/10/06 03:14:40;;;;;;;1.65;0.47;;;12.40;80.70;;;;;;5056708;28;20494;-66
2021/10/06 03:17:06;;;;;;;2.55;0.30;;;12.40;80.70;;;;;;5055042;28;20045;-66
2021/10/06 03:19:32;;;;;;;0.73;0.30;;;12.30;80.60;;;;;;5049237;28;20442;-66
2021/10/06 03:21:57;;;;;;;0.95;0.40;;;12.30;80.60;;;;;;5052276;28;20056;-65
2021/10/06 03:24:23;;;;;;;0.57;0.25;;;12.30;80.50;;;;;;5053661;28;20581;-67
2021/10/06 03:26:48;;;;;;;1.75;0.60;;;12.30;80.50;;;;;;5044523;28;20155;-66
2021/10/06 03:29:14;;;;;;;1.02;0.35;;;12.30;80.50;;;;;;5053331;28;20416;-66
2021/10/06 03:31:39;;;;;;;2.72;0.47;;;12.30;80.40;;;;;;5051830;28;20064;-66
2021/10/06 03:34:05;;;;;;;1.27;0.70;;;12.30;80.50;;;;;;5050248;28;21768;-66
2021/10/06 03:36:31;;;;;;;2.15;0.35;;;12.30;80.60;;;;;;5045244;28;20115;-66
2021/10/06 03:38:56;;;;;;;0.70;0.20;;;12.20;80.50;;;;;;5048339;28;20051;-66
2021/10/06 03:41:22;;;;;;;1.58;0.32;;;12.20;80.50;;;;;;5049656;28;20404;-64
2021/10/06 03:43:48;;;;;;;0.75;0.35;;;12.20;80.50;;;;;;5048779;28;20060;-65
2021/10/06 03:46:13;;;;;;;1.55;0.50;;;12.20;80.80;;;;;;5048245;28;21265;-66
2021/10/06 03:48:39;;;;;;;1.42;0.30;;;12.20;80.40;;;;;;5050041;28;20029;-66
2021/10/06 03:51:06;;;;;;;0.80;0.30;;;12.20;80.30;;;;;;5046684;28;20589;-65
2021/10/06 03:53:31;;;;;;;1.85;0.30;;;12.20;80.30;;;;;;5052376;28;20064;-66
2021/10/06 03:55:57;;;;;;;1.85;0.35;;;12.20;80.30;;;;;;5051503;28;20033;-66
2021/10/06 03:58:22;;;;;;;0.90;0.40;;;12.20;80.30;;;;;;5056057;28;20055;-66
2021/10/06 04:00:48;;;;;;;0.65;0.25;;;12.10;80.10;;;;;;5052121;28;20083;-65
2021/10/06 04:03:14;;;;;;;2.08;0.40;;;12.20;80.00;;;;;;5052120;28;20551;-65
2021/10/06 04:05:40;;;;;;;1.83;0.45;;;12.10;79.90;;;;;;5053110;28;20045;-65
2021/10/06 04:08:06;;;;;;;3.13;0.50;;;12.10;79.80;;;;;;5052962;28;20029;-66
2021/10/06 04:10:33;;;;;;;1.00;0.20;;;12.10;80.00;;;;;;5053083;28;20031;-66
2021/10/06 04:12:59;;;;;;;1.23;0.30;;;12.00;79.90;;;;;;5053330;28;20108;-66
2021/10/06 04:15:24;;;;;;;1.90;0.30;;;12.10;79.90;;;;;;5054285;28;20576;-66
2021/10/06 04:17:50;;;;;;;1.23;0.30;;;12.10;79.80;;;;;;5054497;28;20496;-66
2021/10/06 04:20:16;;;;;;;1.02;0.28;;;12.00;79.80;;;;;;5052869;28;20389;-66
2021/10/06 04:22:41;;;;;;;0.55;0.30;;;12.00;79.70;;;;;;5044228;28;20140;-66
2021/10/06 04:25:08;;;;;;;2.65;0.30;;;12.10;79.60;;;;;;5051921;28;20021;-65
2021/10/06 04:27:34;;;;;;;1.33;0.40;;;12.00;79.40;;;;;;5046177;28;20384;-65
2021/10/06 04:30:00;;;;;;;1.95;0.40;;;12.00;79.40;;;;;;5045235;28;20056;-65
2021/10/06 04:32:26;;;;;;;1.17;0.40;;;12.00;79.30;;;;;;5042335;28;20045;-65
2021/10/06 04:34:51;;;;;;;2.45;2.10;;;12.00;79.20;;;;;;5045696;28;20029;-66
2021/10/06 04:37:17;;;;;;;4.40;3.30;;;12.00;79.20;;;;;;5047863;28;20037;-66
2021/10/06 04:39:43;;;;;;;18.63;13.20;;;12.00;79.20;;;;;;5044860;28;20041;-65
2021/10/06 04:42:09;;;;;;;5.60;4.95;;;12.00;79.20;;;;;;5048057;28;20041;-65
2021/10/06 04:44:35;;;;;;;3.17;2.78;;;12.00;79.20;;;;;;5044040;28;20087;-66
2021/10/06 04:47:00;;;;;;;1.55;1.42;;;11.90;78.90;;;;;;5044664;28;20489;-65
2021/10/06 04:49:26;;;;;;;2.15;1.10;;;11.90;78.90;;;;;;5045276;28;20055;-66
2021/10/06 04:51:52;;;;;;;1.75;1.00;;;12.00;78.90;;;;;;5047806;28;20045;-65
2021/10/06 04:54:17;;;;;;;2.85;1.48;;;11.90;78.80;;;;;;5049388;28;20037;-66
2021/10/06 04:56:43;;;;;;;0.82;0.73;;;11.90;78.80;;;;;;5054381;28;20047;-67
2021/10/06 04:59:09;;;;;;;2.00;1.80;;;11.90;78.90;;;;;;5056704;28;20037;-67
2021/10/06 05:01:34;;;;;;;8.32;4.00;;;11.90;78.90;;;;;;5055689;28;20048;-67
2021/10/06 05:04:00;;;;;;;5.05;3.25;;;11.90;78.90;;;;;;5055922;28;20033;-66
2021/10/06 05:06:25;;;;;;;6.38;2.97;;;11.90;78.90;;;;;;5053010;28;20112;-66
2021/10/06 05:08:51;;;;;;;3.78;1.50;;;11.90;78.90;;;;;;5053223;28;20455;-66
2021/10/06 05:11:17;;;;;;;3.40;1.80;;;11.90;78.90;;;;;;5053330;28;20068;-66
2021/10/06 05:13:42;;;;;;;10.00;7.53;;;11.90;78.90;;;;;;5056057;28;21272;-66
2021/10/06 05:16:08;;;;;;;5.97;4.15;;;11.90;78.90;;;;;;5054642;28;20032;-66
2021/10/06 05:18:33;;;;;;;9.02;5.75;;;11.80;79.00;;;;;;5054715;28;20033;-66
2021/10/06 05:20:59;;;;;;;6.70;5.32;;;11.90;79.10;;;;;;5056145;28;20394;-66
2021/10/06 05:23:25;;;;;;;2.03;1.40;;;11.90;79.00;;;;;;5056420;28;20032;-66
2021/10/06 05:25:50;;;;;;;1.50;0.65;;;11.80;78.90;;;;;;5051133;28;20037;-66
2021/10/06 05:28:16;;;;;;;2.20;1.10;;;11.90;78.90;;;;;;5054059;28;20413;-66
2021/10/06 05:30:42;;;;;;;3.33;1.25;;;11.80;78.90;;;;;;5055422;28;23259;-66
2021/10/06 05:33:08;;;;;;;2.17;1.27;;;11.80;78.90;;;;;;5055308;28;20040;-66
2021/10/06 05:35:34;;;;;;;1.92;1.30;;;11.90;79.10;;;;;;5054158;28;20037;-66
2021/10/06 05:37:59;;;;;;;2.92;0.70;;;11.80;79.10;;;;;;5056503;28;20036;-66
2021/10/06 05:40:25;;;;;;;2.58;1.10;;;11.80;79.10;;;;;;5052596;28;20068;-66
2021/10/06 05:42:51;;;;;;;1.52;0.88;;;11.80;79.10;;;;;;5056377;28;20044;-66
2021/10/06 05:45:16;;;;;;;1.08;0.40;;;11.80;79.10;;;;;;5054288;28;20029;-66
2021/10/06 05:47:42;;;;;;;2.50;0.50;;;11.80;79.10;;;;;;5053296;28;20075;-66
2021/10/06 05:50:08;;;;;;;2.80;0.60;;;11.80;79.10;;;;;;5051458;28;20029;-66
2021/10/06 05:52:35;;;;;;;2.97;0.60;;;11.70;79.20;;;;;;5053603;28;20500;-66
2021/10/06 05:55:01;;;;;;;1.60;0.80;;;11.70;79.10;;;;;;5052639;28;20033;-66
2021/10/06 05:57:26;;;;;;;1.48;0.40;;;11.70;79.20;;;;;;5057830;28;20033;-66
2021/10/06 05:59:53;;;;;;;1.65;0.45;;;11.70;79.30;;;;;;5054928;28;20033;-66
2021/10/06 06:02:19;;;;;;;1.35;0.45;;;11.70;79.40;;;;;;5056911;28;20120;-62
2021/10/06 06:04:45;;;;;;;3.63;0.52;;;11.60;79.40;;;;;;5056254;28;20035;-66
2021/10/06 06:07:10;;;;;;;2.65;0.50;;;11.60;79.40;;;;;;5056602;28;20111;-66
2021/10/06 06:09:36;;;;;;;1.52;0.30;;;11.60;79.50;;;;;;5056484;28;20601;-67
2021/10/06 06:12:02;;;;;;;1.45;0.50;;;11.60;79.60;;;;;;5056064;28;20037;-66
2021/10/06 06:14:29;;;;;;;1.48;0.38;;;11.60;79.70;;;;;;5054741;28;20025;-66
2021/10/06 06:16:55;;;;;;;2.70;0.60;;;11.60;79.80;;;;;;5056985;28;20025;-66
2021/10/06 06:19:20;;;;;;;1.05;0.40;;;11.60;79.70;;;;;;5056991;28;20565;-66
2021/10/06 06:21:46;;;;;;;4.45;0.63;;;11.60;79.70;;;;;;5054315;28;20083;-65
2021/10/06 06:24:12;;;;;;;1.20;0.35;;;11.60;79.80;;;;;;5052392;28;20056;-66
2021/10/06 06:26:37;;;;;;;1.52;0.40;;;11.60;79.80;;;;;;5053723;28;20331;-64
2021/10/06 06:29:03;;;;;;;1.33;0.63;;;11.60;79.90;;;;;;5055927;28;20039;-66
2021/10/06 06:31:29;;;;;;;1.40;0.40;;;11.70;80.00;;;;;;5052528;28;20040;-66
2021/10/06 06:33:55;;;;;;;1.80;0.40;;;11.70;79.90;;;;;;5053564;28;20033;-66
2021/10/06 06:36:20;;;;;;;1.58;0.70;;;11.70;79.90;;;;;;5057690;28;20064;-66
2021/10/06 06:38:46;;;;;;;1.30;0.50;;;11.70;79.80;;;;;;5057945;28;22081;-66
2021/10/06 06:41:12;;;;;;;2.25;0.60;;;11.70;79.80;;;;;;5055667;28;20492;-65
2021/10/06 06:43:37;;;;;;;1.58;0.52;;;11.70;79.70;;;;;;5056779;28;20040;-66
2021/10/06 06:46:03;;;;;;;2.00;0.60;;;11.80;79.70;;;;;;5057215;28;20028;-65
2021/10/06 06:48:29;;;;;;;2.85;0.75;;;11.70;79.60;;;;;;5058373;28;20095;-66
2021/10/06 06:50:54;;;;;;;2.17;0.50;;;11.80;79.80;;;;;;5056977;28;20032;-66
2021/10/06 06:53:26;;;;;;;1.67;0.50;;;11.80;79.80;;;;;;5056681;28;20404;-66
2021/10/06 06:55:53;;;;;;;3.85;0.40;;;11.70;79.70;;;;;;5060142;28;20709;-66
2021/10/06 06:58:19;;;;;;;1.13;0.30;;;11.80;79.80;;;;;;5054207;28;20032;-66
2021/10/06 07:00:45;;;;;;;0.77;0.38;;;11.80;79.60;;;;;;5056002;28;20040;-66
2021/10/06 07:03:10;;;;;;;2.08;0.65;;;11.80;79.70;;;;;;5058002;28;20401;-66
2021/10/06 07:05:36;;;;;;;2.33;0.50;;;11.80;79.70;;;;;;5059314;28;20044;-65
2021/10/06 07:08:02;;;;;;;1.95;0.60;;;11.80;79.80;;;;;;5059322;28;20036;-66
2021/10/06 07:10:29;;;;;;;3.10;0.93;;;11.80;79.80;;;;;;5052514;28;20138;-66
2021/10/06 07:12:54;;;;;;;1.60;1.08;;;11.80;79.80;;;;;;5054256;28;20116;-66
2021/10/06 07:15:20;;;;;;;1.85;0.68;;;11.80;79.80;;;;;;5057680;28;20120;-65
2021/10/06 07:17:46;;;;;;;2.42;0.50;;;11.80;79.80;;;;;;5058196;28;20059;-66
2021/10/06 07:20:11;;;;;;;1.17;0.60;;;11.80;80.00;;;;;;5056344;28;20115;-66
2021/10/06 07:22:37;;;;;;;2.67;0.82;;;11.80;80.00;;;;;;5054919;28;20064;-66
2021/10/06 07:25:04;;;;;;;2.45;0.50;;;11.90;80.00;;;;;;5053660;28;20526;-65
2021/10/06 07:27:30;;;;;;;1.38;0.40;;;11.90;80.10;;;;;;5058008;28;20036;-66
2021/10/06 07:29:55;;;;;;;1.58;0.50;;;11.90;80.10;;;;;;5056279;28;20048;-66
2021/10/06 07:32:21;;;;;;;1.33;0.50;;;11.90;80.10;;;;;;5056048;28;20041;-65
2021/10/06 07:34:47;;;;;;;3.72;0.50;;;12.00;80.20;;;;;;5057753;28;20029;-66
2021/10/06 07:37:12;;;;;;;1.98;0.47;;;12.00;80.20;;;;;;5055532;28;20037;-66
2021/10/06 07:39:38;;;;;;;1.15;0.50;;;12.00;80.10;;;;;;5058031;28;20029;-66
2021/10/06 07:42:04;;;;;;;2.08;0.47;;;12.10;80.10;;;;;;5058043;28;20127;-66
2021/10/06 07:44:30;;;;;;;1.67;0.40;;;12.10;80.00;;;;;;5056925;28;20032;-66
2021/10/06 07:46:55;;;;;;;1.05;0.38;;;12.20;79.90;;;;;;5058291;28;20435;-65
2021/10/06 07:49:21;;;;;;;1.92;0.50;;;12.20;79.80;;;;;;5055974;28;20044;-66
2021/10/06 07:51:47;;;;;;;2.03;0.52;;;12.20;79.70;;;;;;5054968;28;20037;-66
2021/10/06 07:54:13;;;;;;;2.08;0.50;;;12.30;79.80;;;;;;5054106;28;20461;-66
2021/10/06 07:56:38;;;;;;;1.30;0.38;;;12.30;79.70;;;;;;5057640;28;20419;-66
2021/10/06 07:59:04;;;;;;;1.00;0.32;;;12.30;79.70;;;;;;5053257;28;21010;-66
2021/10/06 08:01:30;;;;;;;2.60;0.60;;;12.30;79.50;;;;;;5054301;28;20052;-64
2021/10/06 08:03:55;;;;;;;0.60;0.30;;;12.40;79.60;;;;;;5051989;28;20063;-66
2021/10/06 08:06:21;;;;;;;2.05;0.57;;;12.40;79.70;;;;;;5055807;28;20065;-66
2021/10/06 08:08:47;;;;;;;3.22;0.50;;;12.40;79.60;;;;;;5056809;28;20064;-66
2021/10/06 08:11:12;;;;;;;2.25;0.50;;;12.50;79.50;;;;;;5053991;28;20098;-66
2021/10/06 08:13:38;;;;;;;1.75;0.40;;;12.50;79.50;;;;;;5056147;28;20483;-66
2021/10/06 08:16:04;;;;;;;1.90;0.40;;;12.60;79.60;;;;;;5056693;28;20103;-66
2021/10/06 08:18:30;;;;;;;2.30;0.40;;;12.60;79.60;;;;;;5055908;28;20036;-66
2021/10/06 08:20:56;;;;;;;1.63;0.40;;;12.70;79.60;;;;;;5055445;28;20448;-66
2021/10/06 08:23:23;;;;;;;1.10;0.40;;;12.70;79.50;;;;;;5055481;28;20037;-66
2021/10/06 08:25:50;;;;;;;2.20;0.45;;;12.70;79.20;;;;;;5050106;28;20039;-66
2021/10/06 08:28:17;;;;;;;1.85;0.40;;;12.80;79.10;;;;;;5057153;28;20032;-66
2021/10/06 08:30:43;;;;;;;2.17;0.50;;;12.80;78.60;;;;;;5055098;28;20044;-66
2021/10/06 08:33:09;;;;;;;1.60;0.40;;;12.90;78.00;;;;;;5054462;28;20059;-66
2021/10/06 08:35:34;;;;;;;1.55;0.50;;;12.90;77.20;;;;;;5055978;28;20061;-66
2021/10/06 08:38:02;;;;;;;2.58;0.70;;;12.90;77.20;;;;;;5054409;28;20059;-66
2021/10/06 08:40:27;;;;;;;3.90;0.70;;;12.90;77.00;;;;;;5054326;28;20056;-66
2021/10/06 08:42:53;;;;;;;1.67;0.30;;;12.90;78.00;;;;;;5055944;28;20033;-66
2021/10/06 08:45:19;;;;;;;1.48;0.47;;;13.00;77.40;;;;;;5053005;28;20039;-65
2021/10/06 08:47:45;;;;;;;2.90;0.38;;;13.00;77.50;;;;;;5053169;28;20639;-67
2021/10/06 08:50:14;;;;;;;2.38;0.40;;;13.10;77.50;;;;;;5056506;28;20036;-66
2021/10/06 08:52:39;;;;;;;3.00;0.40;;;13.20;77.90;;;;;;5052963;28;20029;-66
2021/10/06 08:55:07;;;;;;;2.33;0.35;;;13.30;76.40;;;;;;5056178;28;20564;-66
2021/10/06 08:57:33;;;;;;;2.05;0.50;;;13.40;75.40;;;;;;5055354;28;20029;-66
2021/10/06 08:59:59;;;;;;;1.30;0.30;;;13.40;74.20;;;;;;5051869;28;20389;-66
2021/10/06 09:02:25;;;;;;;2.40;0.47;;;13.40;73.80;;;;;;5053498;28;20033;-66
2021/10/06 09:04:51;;;;;;;1.05;0.30;;;13.50;74.70;;;;;;5055974;28;20020;-67
2021/10/06 09:07:17;;;;;;;1.20;0.30;;;13.50;73.30;;;;;;5055527;28;20106;-66
2021/10/06 09:09:43;;;;;;;2.20;0.40;;;13.60;73.20;;;;;;5054992;28;20036;-66
2021/10/06 09:12:14;;;;;;;1.33;0.35;;;13.60;73.00;;;;;;5050806;28;20057;-67
2021/10/06 09:14:47;;;;;;;2.03;0.38;;;13.60;72.30;;;;;;5054887;28;20282;-66
2021/10/06 09:17:19;;;;;;;1.30;0.30;;;13.70;72.00;;;;;;5053966;28;20538;-66
2021/10/06 09:19:53;;;;;;;2.20;0.35;;;13.70;72.10;;;;;;5051021;28;20060;-67
2021/10/06 09:22:27;;;;;;;1.70;0.50;;;13.70;72.50;;;;;;5049630;28;20454;-67
2021/10/06 09:25:03;;;;;;;2.00;0.52;;;13.70;71.90;;;;;;5033680;28;20060;-66
2021/10/06 09:27:35;;;;;;;2.35;0.35;;;13.80;70.70;;;;;;5034977;28;20038;-66
2021/10/06 09:30:07;;;;;;;3.20;0.90;;;13.80;70.90;;;;;;5035627;28;20028;-67
2021/10/06 09:32:38;;;;;;;2.72;0.47;;;13.80;70.40;;;;;;5031421;28;20528;-66
2021/10/06 09:35:08;;;;;;;3.35;0.68;;;13.80;69.90;;;;;;5033189;28;20400;-66
2021/10/06 09:37:36;;;;;;;1.65;0.40;;;13.80;71.10;;;;;;5035879;28;20120;-66
2021/10/06 09:40:04;;;;;;;1.67;0.45;;;13.80;71.60;;;;;;5035771;28;20044;-67
2021/10/06 09:42:31;;;;;;;4.53;0.68;;;13.90;71.20;;;;;;5050417;28;20035;-66
2021/10/06 09:44:58;;;;;;;1.95;0.40;;;14.00;71.10;;;;;;5054394;28;20033;-66
2021/10/06 09:47:25;;;;;;;2.88;0.40;;;14.00;70.60;;;;;;5052973;28;20171;-66
2021/10/06 09:49:56;;;;;;;1.77;0.40;;;14.10;69.90;;;;;;5055557;28;20029;-66
2021/10/06 09:52:33;;;;;;;1.98;0.43;;;14.10;68.80;;;;;;5053337;28;20029;-66
2021/10/06 09:55:08;;;;;;;2.08;0.30;;;14.10;67.50;;;;;;5055597;28;20572;-67
2021/10/06 09:57:34;;;;;;;;;;;14.20;66.10;;;;;;5053434;28;20072;-66
2021/10/06 10:00:04;;;;;;;3.55;0.40;;;14.20;66.00;;;;;;5054595;28;19992;-66
2021/10/06 10:02:30;;;;;;;1.10;0.47;;;14.20;68.00;;;;;;5051959;28;20579;-66
2021/10/06 10:04:57;;;;;;;0.93;0.22;;;14.30;67.40;;;;;;5055239;28;20161;-66
2021/10/06 10:07:23;;;;;;;0.90;0.20;;;14.20;67.30;;;;;;5053222;28;20033;-66
2021/10/06 10:09:50;;;;;;;1.13;0.25;;;14.30;66.90;;;;;;5059246;28;20029;-66
2021/10/06 10:12:21;;;;;;;2.17;0.40;;;14.30;66.70;;;;;;5055621;28;20559;-66
2021/10/06 10:14:48;;;;;;;2.45;0.40;;;14.30;66.20;;;;;;5057394;28;20102;-66
2021/10/06 10:17:15;;;;;;;1.02;0.40;;;14.30;66.60;;;;;;5056076;28;20029;-66
2021/10/06 10:19:45;;;;;;;0.65;0.32;;;14.40;66.80;;;;;;5055349;28;20025;-66
2021/10/06 10:22:12;;;;;;;1.55;0.30;;;14.40;66.40;;;;;;5050110;28;20089;-66
2021/10/06 10:24:46;;;;;;;3.05;0.50;;;14.40;65.20;;;;;;5057516;28;20033;-66
2021/10/06 10:27:14;;;;;;;2.00;0.43;;;14.40;65.70;;;;;;5059042;28;20074;-65
2021/10/06 10:29:56;;;;;;;1.17;0.32;;;14.40;66.40;;;;;;5059921;28;20041;-66
2021/10/06 10:32:26;;;;;;;1.13;0.30;;;14.40;65.80;;;;;;5056280;28;20029;-66
2021/10/06 10:35:15;;;;;;;1.17;0.50;;;14.40;66.00;;;;;;5036410;28;20136;-66
2021/10/06 10:37:47;;;;;;;1.90;0.35;;;14.40;65.20;;;;;;5034444;28;20510;-65
2021/10/06 10:40:31;;;;;;;3.65;0.60;;;14.50;65.50;;;;;;5038225;28;20029;-67
2021/10/06 10:42:58;;;;;;;1.05;0.30;;;14.50;65.50;;;;;;5036300;28;20034;-67
2021/10/06 10:45:49;;;;;;;2.55;0.20;;;14.40;66.60;;;;;;5037374;28;20110;-67
2021/10/06 10:48:16;;;;;;;0.63;0.38;;;14.40;65.30;;;;;;5034347;28;20129;-67
2021/10/06 10:50:42;;;;;;;1.33;0.30;;;14.40;66.60;;;;;;5036427;28;20484;-66
2021/10/06 10:53:09;;;;;;;2.15;0.30;;;14.40;66.40;;;;;;5037356;28;20044;-66
2021/10/06 10:55:55;;;;;;;2.17;0.40;;;14.40;66.40;;;;;;5037129;28;20095;-64
2021/10/06 10:58:39;;;;;;;2.35;0.38;;;14.40;66.00;;;;;;5037860;28;20033;-67
2021/10/06 11:01:06;;;;;;;2.08;0.50;;;14.40;66.00;;;;;;5038632;28;20624;-65
2021/10/06 11:03:32;;;;;;;0.98;0.20;;;14.40;66.90;;;;;;5036195;28;20025;-66
2021/10/06 11:05:58;;;;;;;0.77;0.60;;;14.40;67.10;;;;;;5036113;28;20029;-66
2021/10/06 11:08:27;;;;;;;1.33;0.65;;;14.40;67.30;;;;;;5035121;28;20492;-66
2021/10/06 11:11:13;;;;;;;2.53;0.40;;;14.50;67.70;;;;;;5036569;28;20056;-65
2021/10/06 11:13:48;;;;;;;3.42;0.50;;;14.50;66.40;;;;;;5037532;28;20030;-65
2021/10/06 11:16:14;;;;;;;3.70;0.57;;;14.60;66.70;;;;;;5037247;28;20041;-66
2021/10/06 11:18:45;;;;;;;0.70;0.30;;;14.60;66.90;;;;;;5031044;28;20043;-67
2021/10/06 11:21:11;;;;;;;1.85;0.40;;;14.60;66.60;;;;;;5032506;28;20068;-66
2021/10/06 11:23:42;;;;;;;2.90;0.50;;;14.70;66.40;;;;;;5032116;28;20068;-66
2021/10/06 11:26:26;;;;;;;3.42;0.50;;;14.70;65.90;;;;;;5038613;28;20092;-67
2021/10/06 11:28:53;;;;;;;1.08;0.43;;;14.70;65.40;;;;;;5041933;28;20056;-66
2021/10/06 11:31:38;;;;;;;1.40;0.40;;;14.70;66.00;;;;;;5056867;28;20061;-66
2021/10/06 11:34:07;;;;;;;1.65;0.40;;;14.70;64.80;;;;;;5055311;28;20036;-67
2021/10/06 11:36:34;;;;;;;0.80;0.30;;;14.80;65.70;;;;;;5052543;28;20029;-66
2021/10/06 11:39:10;;;;;;;1.67;0.60;;;14.80;65.20;;;;;;5057462;28;20089;-66
2021/10/06 11:41:44;;;;;;;1.33;0.40;;;14.80;63.50;;;;;;5057410;28;20170;-67
2021/10/06 11:44:13;;;;;;;1.92;0.38;;;14.80;64.60;;;;;;5057134;28;20252;-66
2021/10/06 11:46:39;;;;;;;1.25;0.20;;;14.80;63.70;;;;;;5053492;28;20037;-67
2021/10/06 11:49:07;;;;;;;0.65;0.20;;;14.90;63.50;;;;;;5057663;28;20393;-66
2021/10/06 11:51:37;;;;;;;0.77;0.35;;;14.90;62.60;;;;;;5054005;28;20056;-66
2021/10/06 11:54:03;;;;;;;2.42;0.50;;;14.90;62.60;;;;;;5056589;28;20048;-67
2021/10/06 11:56:30;;;;;;;2.40;0.32;;;14.90;63.00;;;;;;5058282;28;20033;-67
2021/10/06 11:59:12;;;;;;;1.92;0.50;;;15.00;63.30;;;;;;5058768;28;20629;-66
2021/10/06 12:01:38;;;;;;;2.05;0.40;;;15.00;63.00;;;;;;5058048;28;20105;-66
2021/10/06 12:04:16;;;;;;;0.93;0.22;;;15.00;63.60;;;;;;5057333;28;20056;-66
2021/10/06 12:06:44;;;;;;;0.80;0.40;;;15.10;62.10;;;;;;5056527;28;20904;-67
2021/10/06 12:09:10;;;;;;;2.67;0.57;;;15.10;63.50;;;;;;5056737;28;20044;-67
2021/10/06 12:11:38;;;;;;;3.10;0.28;;;15.20;62.60;;;;;;5052468;28;20039;-67
2021/10/06 12:14:31;;;;;;;1.25;0.40;;;15.20;62.20;;;;;;5056647;28;21444;-66
2021/10/06 12:17:11;;;;;;;1.38;0.50;;;15.30;62.30;;;;;;5054708;28;20058;-66
2021/10/06 12:19:37;;;;;;;2.58;0.30;;;15.30;62.60;;;;;;5056173;28;20083;-66
2021/10/06 12:22:05;;;;;;;1.70;0.32;;;15.40;62.60;;;;;;5052997;28;20071;-66
2021/10/06 12:24:32;;;;;;;2.08;0.35;;;15.40;61.90;;;;;;5054909;28;20045;-66
2021/10/06 12:26:58;;;;;;;2.28;0.35;;;15.40;61.20;;;;;;5056068;28;20032;-66
2021/10/06 12:29:29;;;;;;;1.13;0.38;;;15.50;61.20;;;;;;5056409;28;20394;-66
2021/10/06 12:32:14;;;;;;;1.92;0.40;;;15.50;60.60;;;;;;5053990;28;20033;-66
2021/10/06 12:34:40;;;;;;;1.87;0.50;;;15.50;59.30;;;;;;5071257;28;20500;-66
2021/10/06 12:37:07;;;;;;;3.00;0.50;;;15.50;60.90;;;;;;5052957;28;20037;-66
2021/10/06 12:39:33;;;;;;;0.85;0.40;;;15.60;61.70;;;;;;5055922;28;20048;-66
2021/10/06 12:42:04;;;;;;;1.88;0.50;;;15.60;61.50;;;;;;5054487;28;20036;-67
2021/10/06 12:44:38;;;;;;;0.73;0.30;;;15.60;61.20;;;;;;5056593;28;20435;-67
2021/10/06 12:47:17;;;;;;;2.15;0.40;;;15.60;60.60;;;;;;5054566;28;20259;-67
2021/10/06 12:49:54;;;;;;;0.80;0.15;;;15.60;59.50;;;;;;5056531;28;20157;-66